Time;durP1;ratioP1;P1;durP2;ratioP2;P2;SDS_P1;SDS_P2;PMS_P1;PMS_P2;Temp;Humidity;BMP_temperature;BMP_pressure;BME280_temperature;BME280_humidity;BME280_pressure;Samples;Min_cycle;Max_cycle;Signal;HPM_P1;HPM_P2
2022/10/18 00:00:09;;;;;;;7.53;5.70;;;;;;;;;;5074737;28;20457;-70
2022/10/18 00:02:39;;;;;;;7.53;5.43;;;;;;;;;;5075488;28;20449;-70
2022/10/18 00:05:06;;;;;;;7.67;5.27;;;;;;;;;;5076004;28;21027;-70
2022/10/18 00:07:34;;;;;;;8.73;5.73;;;;;;;;;;5075559;28;20445;-70
2022/10/18 00:10:12;;;;;;;12.63;5.47;;;;;;;;;;5076238;28;20467;-71
2022/10/18 00:12:39;;;;;;;10.57;6.17;;;;;;;;;;5075609;28;20460;-71
2022/10/18 00:15:08;;;;;;;6.50;5.40;;;;;;;;;;5076025;28;20550;-71
2022/10/18 00:17:35;;;;;;;10.30;5.90;;;;;;;;;;5075407;28;20456;-70
2022/10/18 00:20:02;;;;;;;11.03;5.77;;;;;;;;;;5074163;28;21025;-70
2022/10/18 00:22:29;;;;;;;11.00;6.60;;;;;;;;;;5074516;28;20974;-72
2022/10/18 00:24:56;;;;;;;9.37;6.10;;;;;;;;;;5075259;28;20490;-71
2022/10/18 00:27:24;;;;;;;7.70;5.77;;;;;;;;;;5075527;28;20664;-71
2022/10/18 00:29:52;;;;;;;10.03;6.10;;;;;;;;;;5075070;28;20877;-71
2022/10/18 00:32:19;;;;;;;10.47;6.80;;;;;;;;;;5075126;28;20471;-70
2022/10/18 00:34:47;;;;;;;11.10;6.83;;;;;;;;;;5075021;28;20480;-71
2022/10/18 00:37:14;;;;;;;12.07;6.00;;;;;;;;;;5074924;28;20517;-71
2022/10/18 00:39:41;;;;;;;10.63;6.90;;;;;;;;;;5075484;28;20449;-71
2022/10/18 00:42:11;;;;;;;12.77;6.97;;;;;;;;;;5074722;28;20779;-72
2022/10/18 00:44:56;;;;;;;9.60;6.80;;;;;;;;;;5074119;28;20507;-71
2022/10/18 00:47:27;;;;;;;12.77;7.47;;;;;;;;;;5074248;28;20440;-73
2022/10/18 00:49:55;;;;;;;8.03;6.10;;;;;;;;;;5074506;28;20453;-71
2022/10/18 00:52:24;;;;;;;11.70;7.20;;;;;;;;;;5074639;28;20488;-71
2022/10/18 00:54:55;;;;;;;9.13;7.17;;;;;;;;;;5071292;28;20499;-70
2022/10/18 00:57:24;;;;;;;13.03;6.97;;;;;;;;;;5062944;28;20449;-72
2022/10/18 00:59:51;;;;;;;11.93;7.00;;;;;;;;;;5059548;28;20460;-71
2022/10/18 01:02:24;;;;;;;14.40;7.30;;;;;;;;;;5054621;28;20869;-71
2022/10/18 01:04:52;;;;;;;10.23;8.37;;;;;;;;;;5064822;28;21033;-71
2022/10/18 01:07:25;;;;;;;13.37;8.10;;;;;;;;;;5073765;28;20464;-71
2022/10/18 01:09:58;;;;;;;11.83;8.50;;;;;;;;;;5065257;28;20450;-71
2022/10/18 01:12:28;;;;;;;11.23;8.27;;;;;;;;;;5058328;28;20453;-71
2022/10/18 01:15:02;;;;;;;13.70;8.50;;;;;;;;;;5058421;28;20479;-71
2022/10/18 01:17:34;;;;;;;14.93;8.17;;;;;;;;;;5074015;28;20563;-72
2022/10/18 01:20:19;;;;;;;11.27;7.83;;;;;;;;;;5078235;28;20444;-71
2022/10/18 01:22:49;;;;;;;11.40;8.23;;;;;;;;;;5077989;28;20448;-71
2022/10/18 01:28:20;;;;;;;12.17;9.40;;;;;;;;;;5078204;28;20776;-71
2022/10/18 01:30:50;;;;;;;17.40;9.43;;;;;;;;;;5078028;28;20734;-72
2022/10/18 01:36:20;;;;;;;11.57;9.20;;;;;;;;;;5068289;28;20484;-72
2022/10/18 01:38:48;;;;;;;16.03;10.60;;;;;;;;;;5076710;28;20451;-71
2022/10/18 01:41:17;;;;;;;17.17;8.80;;;;;;;;;;5077214;28;20456;-71
2022/10/18 01:43:45;;;;;;;12.10;9.10;;;;;;;;;;5076900;28;20441;-71
2022/10/18 01:46:13;;;;;;;12.33;8.73;;;;;;;;;;5077290;28;20893;-71
2022/10/18 01:48:40;;;;;;;13.80;9.70;;;;;;;;;;5077498;28;20538;-71
2022/10/18 01:51:07;;;;;;;15.23;9.53;;;;;;;;;;5077829;28;20457;-71
2022/10/18 01:53:37;;;;;;;11.00;9.07;;;;;;;;;;5058849;28;20838;-72
2022/10/18 01:56:16;;;;;;;17.70;9.77;;;;;;;;;;5063938;28;20440;-72
2022/10/18 01:58:49;;;;;;;14.27;9.93;;;;;;;;;;5078117;28;20485;-72
2022/10/18 02:01:44;;;;;;;13.30;8.90;;;;;;;;;;5068812;28;20535;-71
2022/10/18 02:04:39;;;;;;;12.10;9.17;;;;;;;;;;5073308;28;20543;-71
2022/10/18 02:07:11;;;;;;;18.00;8.60;;;;;;;;;;5077531;28;20527;-72
2022/10/18 02:09:49;;;;;;;12.30;9.50;;;;;;;;;;5068905;28;20822;-71
2022/10/18 02:12:16;;;;;;;20.87;9.70;;;;;;;;;;5057824;28;21011;-71
2022/10/18 02:14:45;;;;;;;17.00;9.50;;;;;;;;;;5057551;28;20465;-71
2022/10/18 02:17:12;;;;;;;14.23;10.17;;;;;;;;;;5057481;28;20469;-71
2022/10/18 02:19:42;;;;;;;16.83;9.03;;;;;;;;;;5057904;28;20507;-71
2022/10/18 02:22:16;;;;;;;14.53;8.60;;;;;;;;;;5056309;28;20532;-71
2022/10/18 02:24:44;;;;;;;16.43;9.57;;;;;;;;;;5057752;28;20524;-71
2022/10/18 02:27:12;;;;;;;15.80;10.17;;;;;;;;;;5057977;28;20550;-71
2022/10/18 02:29:40;;;;;;;15.00;9.70;;;;;;;;;;5058046;28;20461;-71
2022/10/18 02:32:11;;;;;;;15.53;9.10;;;;;;;;;;5056769;28;20441;-69
2022/10/18 02:34:41;;;;;;;15.60;12.00;;;;;;;;;;5068065;28;20483;-71
2022/10/18 02:37:08;;;;;;;13.33;10.27;;;;;;;;;;5077172;28;20471;-71
2022/10/18 02:39:37;;;;;;;14.20;10.53;;;;;;;;;;5077314;28;20525;-71
2022/10/18 02:42:06;;;;;;;15.97;11.93;;;;;;;;;;5077104;28;20457;-72
2022/10/18 02:44:34;;;;;;;17.00;10.60;;;;;;;;;;5077010;28;20896;-71
2022/10/18 02:47:01;;;;;;;18.70;9.37;;;;;;;;;;5076860;28;21078;-71
2022/10/18 02:49:28;;;;;;;19.30;10.73;;;;;;;;;;5077077;28;20456;-70
2022/10/18 02:51:55;;;;;;;12.67;9.67;;;;;;;;;;5076701;28;20513;-70
2022/10/18 02:54:22;;;;;;;15.80;10.10;;;;;;;;;;5077213;28;20876;-72
2022/10/18 02:56:50;;;;;;;18.47;10.90;;;;;;;;;;5076289;28;20506;-71
2022/10/18 02:59:17;;;;;;;13.90;9.80;;;;;;;;;;5075741;28;20455;-72
2022/10/18 03:01:44;;;;;;;16.17;11.00;;;;;;;;;;5078247;28;20916;-72
2022/10/18 03:04:11;;;;;;;17.50;10.57;;;;;;;;;;5075872;28;20445;-71
2022/10/18 03:06:44;;;;;;;19.93;11.77;;;;;;;;;;5076895;28;20868;-71
2022/10/18 03:09:11;;;;;;;16.43;10.43;;;;;;;;;;5076697;28;20453;-70
2022/10/18 03:11:41;;;;;;;20.70;11.77;;;;;;;;;;5076759;28;20464;-70
2022/10/18 03:14:24;;;;;;;15.87;10.67;;;;;;;;;;5076687;28;20448;-71
2022/10/18 03:16:51;;;;;;;17.13;12.20;;;;;;;;;;5077639;28;20876;-72
2022/10/18 03:19:18;;;;;;;22.67;12.27;;;;;;;;;;5075850;28;20838;-71
2022/10/18 03:21:45;;;;;;;16.83;12.17;;;;;;;;;;5071128;28;20518;-72
2022/10/18 03:24:33;;;;;;;18.53;11.40;;;;;;;;;;5056522;28;20468;-71
2022/10/18 03:27:03;;;;;;;20.80;11.87;;;;;;;;;;5059593;28;20866;-71
2022/10/18 03:29:33;;;;;;;18.33;11.10;;;;;;;;;;5055553;28;20464;-71
2022/10/18 03:32:00;;;;;;;18.33;12.17;;;;;;;;;;5056928;28;20540;-70
2022/10/18 03:34:39;;;;;;;15.63;10.00;;;;;;;;;;5055324;28;20782;-71
2022/10/18 03:37:07;;;;;;;16.17;10.67;;;;;;;;;;5058924;28;20480;-70
2022/10/18 03:39:34;;;;;;;18.53;11.20;;;;;;;;;;5056355;28;20524;-71
2022/10/18 03:42:01;;;;;;;16.43;10.50;;;;;;;;;;5056174;28;20485;-71
2022/10/18 03:44:39;;;;;;;27.50;13.60;;;;;;;;;;5056649;28;21139;-72
2022/10/18 03:47:07;;;;;;;23.23;14.37;;;;;;;;;;5058172;28;20453;-70
2022/10/18 03:49:34;;;;;;;15.70;11.30;;;;;;;;;;5057379;28;20450;-71
2022/10/18 03:52:01;;;;;;;23.67;12.27;;;;;;;;;;5056866;28;20454;-70
2022/10/18 03:54:29;;;;;;;20.93;12.40;;;;;;;;;;5061788;28;20463;-70
2022/10/18 03:56:56;;;;;;;19.63;11.30;;;;;;;;;;5075455;28;20578;-72
2022/10/18 03:59:23;;;;;;;19.70;11.80;;;;;;;;;;5075476;28;20970;-72
2022/10/18 04:01:50;;;;;;;19.97;10.73;;;;;;;;;;5076201;28;20452;-71
2022/10/18 04:04:18;;;;;;;20.30;12.53;;;;;;;;;;5076169;28;20444;-72
2022/10/18 04:06:45;;;;;;;15.23;11.87;;;;;;;;;;5076204;28;20464;-72
2022/10/18 04:09:12;;;;;;;17.97;13.53;;;;;;;;;;5075929;28;20456;-72
2022/10/18 04:11:39;;;;;;;18.43;11.90;;;;;;;;;;5076348;28;20729;-71
2022/10/18 04:14:06;;;;;;;19.20;12.27;;;;;;;;;;5075701;28;20786;-71
2022/10/18 04:16:33;;;;;;;16.13;13.00;;;;;;;;;;5075491;28;20492;-72
2022/10/18 04:19:00;;;;;;;19.00;13.27;;;;;;;;;;5075678;28;20448;-71
2022/10/18 04:21:29;;;;;;;21.63;12.17;;;;;;;;;;5075524;28;20571;-71
2022/10/18 04:23:57;;;;;;;15.87;11.00;;;;;;;;;;5075906;28;20713;-72
2022/10/18 04:26:24;;;;;;;19.17;11.40;;;;;;;;;;5075580;28;20586;-70
2022/10/18 04:28:55;;;;;;;26.07;11.73;;;;;;;;;;5075600;28;20837;-72
2022/10/18 04:31:23;;;;;;;16.93;12.90;;;;;;;;;;5074964;28;20482;-70
2022/10/18 04:33:50;;;;;;;29.23;13.60;;;;;;;;;;5075484;28;20463;-72
2022/10/18 04:36:17;;;;;;;21.20;12.43;;;;;;;;;;5074638;28;20529;-72
2022/10/18 04:38:45;;;;;;;19.30;12.13;;;;;;;;;;5074891;28;20509;-72
2022/10/18 04:41:20;;;;;;;19.13;11.50;;;;;;;;;;5074376;28;20517;-72
2022/10/18 04:43:47;;;;;;;17.53;11.50;;;;;;;;;;5075390;28;20452;-70
2022/10/18 04:46:14;;;;;;;15.70;11.03;;;;;;;;;;5074079;28;20499;-71
2022/10/18 04:48:41;;;;;;;19.93;13.00;;;;;;;;;;5074575;28;20928;-72
2022/10/18 04:51:09;;;;;;;17.70;12.60;;;;;;;;;;5073896;28;20448;-71
2022/10/18 04:53:36;;;;;;;18.13;10.97;;;;;;;;;;5074256;28;20452;-71
2022/10/18 04:56:04;;;;;;;19.43;12.20;;;;;;;;;;5074544;28;20457;-72
2022/10/18 04:58:31;;;;;;;21.97;12.20;;;;;;;;;;5067476;28;20467;-72
2022/10/18 05:01:01;;;;;;;17.53;12.17;;;;;;;;;;5055968;28;20988;-70
2022/10/18 05:03:28;;;;;;;18.70;12.17;;;;;;;;;;5045848;28;21041;-71
2022/10/18 05:05:55;;;;;;;21.90;11.90;;;;;;;;;;5072108;28;20772;-70
2022/10/18 05:08:22;;;;;;;20.37;12.40;;;;;;;;;;5073356;28;20768;-71
2022/10/18 05:10:49;;;;;;;18.23;11.53;;;;;;;;;;5073206;28;20448;-70
2022/10/18 05:13:17;;;;;;;16.83;12.07;;;;;;;;;;5072660;28;20445;-70
2022/10/18 05:15:46;;;;;;;21.20;12.30;;;;;;;;;;5073002;28;20517;-70
2022/10/18 05:18:14;;;;;;;19.10;10.43;;;;;;;;;;5072333;28;20452;-70
2022/10/18 05:20:41;;;;;;;18.20;11.63;;;;;;;;;;5073382;28;20635;-70
2022/10/18 05:23:11;;;;;;;19.30;11.80;;;;;;;;;;5072093;28;20514;-70
2022/10/18 05:25:38;;;;;;;16.50;11.27;;;;;;;;;;5073371;28;20853;-71
2022/10/18 05:28:06;;;;;;;19.10;10.57;;;;;;;;;;5067420;28;20446;-71
2022/10/18 05:30:37;;;;;;;17.63;11.57;;;;;;;;;;5057107;28;20522;-71
2022/10/18 05:33:04;;;;;;;17.73;11.67;;;;;;;;;;5073149;28;20460;-72
2022/10/18 05:35:31;;;;;;;19.13;11.70;;;;;;;;;;5073119;28;20456;-72
2022/10/18 05:37:59;;;;;;;20.30;11.83;;;;;;;;;;5073300;28;20452;-71
2022/10/18 05:40:26;;;;;;;20.50;13.00;;;;;;;;;;5072684;28;20467;-71
2022/10/18 05:42:54;;;;;;;19.27;12.90;;;;;;;;;;5072770;28;20456;-71
2022/10/18 05:45:22;;;;;;;18.77;12.93;;;;;;;;;;5066231;28;20576;-71
2022/10/18 05:47:53;;;;;;;17.37;11.40;;;;;;;;;;5070729;28;20886;-72
2022/10/18 05:50:20;;;;;;;19.60;12.30;;;;;;;;;;5068976;28;20453;-72
2022/10/18 05:52:47;;;;;;;17.90;11.10;;;;;;;;;;5072201;28;20895;-73
2022/10/18 05:55:14;;;;;;;19.27;11.63;;;;;;;;;;5072334;28;20556;-72
2022/10/18 05:57:42;;;;;;;13.87;10.03;;;;;;;;;;5074420;28;20719;-71
2022/10/18 06:00:10;;;;;;;16.00;11.70;;;;;;;;;;5066821;28;20457;-71
2022/10/18 06:02:37;;;;;;;16.90;12.83;;;;;;;;;;5074162;28;20472;-70
2022/10/18 06:05:05;;;;;;;21.17;12.30;;;;;;;;;;5075306;28;20476;-71
2022/10/18 06:07:32;;;;;;;20.43;14.67;;;;;;;;;;5075708;28;20464;-71
2022/10/18 06:10:02;;;;;;;22.40;12.63;;;;;;;;;;5074549;28;20445;-71
2022/10/18 06:12:31;;;;;;;21.20;12.40;;;;;;;;;;5074763;28;20443;-72
2022/10/18 06:14:59;;;;;;;19.93;11.63;;;;;;;;;;5074114;28;20507;-72
2022/10/18 06:17:27;;;;;;;26.07;13.33;;;;;;;;;;5076130;28;20448;-72
2022/10/18 06:19:58;;;;;;;18.43;12.67;;;;;;;;;;5074988;28;20468;-70
2022/10/18 06:22:27;;;;;;;21.70;13.13;;;;;;;;;;5075471;28;20464;-71
2022/10/18 06:24:57;;;;;;;20.90;12.00;;;;;;;;;;5073870;28;20531;-71
2022/10/18 06:27:32;;;;;;;19.77;12.50;;;;;;;;;;5075691;28;20472;-72
2022/10/18 06:30:01;;;;;;;21.13;14.23;;;;;;;;;;5076094;28;20803;-71
2022/10/18 06:32:28;;;;;;;20.90;13.10;;;;;;;;;;5075144;28;20448;-72
2022/10/18 06:34:56;;;;;;;18.73;12.20;;;;;;;;;;5074866;28;20959;-70
2022/10/18 06:37:24;;;;;;;19.50;12.10;;;;;;;;;;5074063;28;20545;-71
2022/10/18 06:39:53;;;;;;;20.40;12.77;;;;;;;;;;5074709;28;20507;-71
2022/10/18 06:42:23;;;;;;;20.03;11.13;;;;;;;;;;5075220;28;20460;-71
2022/10/18 06:44:51;;;;;;;18.87;11.50;;;;;;;;;;5074416;28;20580;-70
2022/10/18 06:47:19;;;;;;;22.20;11.20;;;;;;;;;;5074637;28;20448;-71
2022/10/18 06:49:46;;;;;;;19.87;12.80;;;;;;;;;;5075023;28;20491;-70
2022/10/18 06:52:15;;;;;;;22.50;11.97;;;;;;;;;;5074503;28;20525;-70
2022/10/18 06:54:42;;;;;;;22.43;13.00;;;;;;;;;;5074122;28;20456;-70
2022/10/18 06:57:17;;;;;;;22.07;13.53;;;;;;;;;;5073085;28;20522;-70
2022/10/18 06:59:44;;;;;;;19.57;12.40;;;;;;;;;;5061339;28;20853;-70
2022/10/18 07:02:15;;;;;;;22.17;11.83;;;;;;;;;;5075024;28;20451;-70
2022/10/18 07:04:42;;;;;;;18.30;11.73;;;;;;;;;;5073478;28;20911;-71
2022/10/18 07:07:09;;;;;;;21.57;13.33;;;;;;;;;;5072615;28;20492;-71
2022/10/18 07:09:37;;;;;;;18.57;12.23;;;;;;;;;;5069868;28;20456;-70
2022/10/18 07:12:04;;;;;;;21.27;12.67;;;;;;;;;;5066732;28;20476;-71
2022/10/18 07:14:32;;;;;;;22.53;13.50;;;;;;;;;;5072225;28;20507;-71
2022/10/18 07:17:00;;;;;;;19.30;12.17;;;;;;;;;;5073927;28;20495;-71
2022/10/18 07:19:27;;;;;;;22.30;11.73;;;;;;;;;;5073434;28;20924;-71
2022/10/18 07:21:55;;;;;;;27.47;12.80;;;;;;;;;;5073305;28;20896;-71
2022/10/18 07:24:22;;;;;;;23.10;13.23;;;;;;;;;;5064856;28;20535;-71
2022/10/18 07:26:49;;;;;;;18.43;12.27;;;;;;;;;;5072268;28;20496;-70
2022/10/18 07:29:16;;;;;;;18.73;11.83;;;;;;;;;;5075404;28;20453;-70
2022/10/18 07:31:44;;;;;;;25.47;13.57;;;;;;;;;;5073740;28;20495;-70
2022/10/18 07:34:14;;;;;;;26.60;14.80;;;;;;;;;;5074037;28;20779;-71
2022/10/18 07:36:45;;;;;;;21.20;12.43;;;;;;;;;;5074963;28;20468;-71
2022/10/18 07:39:12;;;;;;;28.03;14.27;;;;;;;;;;5073399;28;20440;-71
2022/10/18 07:44:41;;;;;;;22.87;13.73;;;;;;;;;;5046052;28;20728;-71
2022/10/18 07:47:15;;;;;;;24.33;14.17;;;;;;;;;;5064129;28;20456;-71
2022/10/18 07:49:43;;;;;;;24.50;15.10;;;;;;;;;;5070543;28;20563;-70
2022/10/18 07:52:15;;;;;;;25.33;13.97;;;;;;;;;;5072514;28;20460;-71
2022/10/18 07:54:45;;;;;;;26.50;13.37;;;;;;;;;;5073844;28;20445;-71
2022/10/18 07:57:14;;;;;;;23.77;12.10;;;;;;;;;;5072995;28;20453;-71
2022/10/18 07:59:45;;;;;;;31.93;12.83;;;;;;;;;;5073941;28;20449;-71
2022/10/18 08:02:13;;;;;;;29.37;17.23;;;;;;;;;;5073428;28;20529;-71
2022/10/18 08:04:40;;;;;;;29.03;13.40;;;;;;;;;;5071925;28;20463;-71
2022/10/18 08:07:07;;;;;;;24.93;12.90;;;;;;;;;;5072971;28;20460;-71
2022/10/18 08:09:34;;;;;;;21.43;12.57;;;;;;;;;;5074674;28;20441;-72
2022/10/18 08:12:01;;;;;;;24.67;13.40;;;;;;;;;;5070768;28;20452;-72
2022/10/18 08:14:28;;;;;;;21.13;12.93;;;;;;;;;;5071590;28;21002;-70
2022/10/18 08:16:56;;;;;;;32.47;13.17;;;;;;;;;;5072046;28;20936;-70
2022/10/18 08:19:24;;;;;;;23.97;13.57;;;;;;;;;;5071297;28;20956;-70
2022/10/18 08:21:51;;;;;;;27.53;14.00;;;;;;;;;;5072752;28;20472;-70
2022/10/18 08:24:18;;;;;;;27.60;13.37;;;;;;;;;;5072161;28;20453;-71
2022/10/18 08:26:45;;;;;;;34.00;18.80;;;;;;;;;;5073252;28;20745;-72
2022/10/18 08:29:15;;;;;;;20.90;13.07;;;;;;;;;;5072926;28;20488;-72
2022/10/18 08:31:44;;;;;;;23.80;13.77;;;;;;;;;;5073466;28;20585;-73
2022/10/18 08:34:11;;;;;;;19.13;11.27;;;;;;;;;;5072612;28;20556;-72
2022/10/18 08:36:40;;;;;;;21.83;12.10;;;;;;;;;;5073090;28;20585;-70
2022/10/18 08:39:09;;;;;;;19.93;11.13;;;;;;;;;;5059545;28;20501;-72
2022/10/18 08:41:54;;;;;;;26.40;12.00;;;;;;;;;;5074265;28;20436;-72
2022/10/18 08:44:23;;;;;;;22.50;12.70;;;;;;;;;;5072489;28;20529;-71
2022/10/18 08:46:54;;;;;;;23.30;10.40;;;;;;;;;;5072235;28;20488;-71
2022/10/18 08:49:27;;;;;;;17.53;9.90;;;;;;;;;;5074224;28;20445;-72
2022/10/18 08:51:59;;;;;;;18.00;10.40;;;;;;;;;;5073003;28;20459;-72
2022/10/18 08:54:33;;;;;;;21.17;10.20;;;;;;;;;;5073568;28;20480;-71
2022/10/18 08:57:01;;;;;;;19.20;9.80;;;;;;;;;;5073771;28;20447;-71
2022/10/18 08:59:31;;;;;;;19.27;10.30;;;;;;;;;;5072172;28;20456;-72
2022/10/18 09:02:02;;;;;;;22.63;10.87;;;;;;;;;;5073274;28;20460;-72
2022/10/18 09:04:33;;;;;;;20.80;9.70;;;;;;;;;;5072818;28;20856;-72
2022/10/18 09:07:09;;;;;;;18.00;9.83;;;;;;;;;;5072822;28;20475;-71
2022/10/18 09:09:46;;;;;;;18.80;10.83;;;;;;;;;;5073349;28;20452;-73
2022/10/18 09:12:20;;;;;;;16.53;8.80;;;;;;;;;;5074401;28;20547;-74
2022/10/18 09:15:06;;;;;;;18.53;8.63;;;;;;;;;;5079015;28;20474;-73
2022/10/18 09:17:37;;;;;;;19.50;9.63;;;;;;;;;;5087722;28;20471;-73
2022/10/18 09:20:12;;;;;;;38.80;10.03;;;;;;;;;;5073149;28;20468;-73
2022/10/18 09:22:52;;;;;;;17.77;9.00;;;;;;;;;;5074256;28;20468;-72
2022/10/18 09:25:22;;;;;;;21.00;9.30;;;;;;;;;;5069637;28;20579;-74
2022/10/18 09:27:56;;;;;;;17.67;9.47;;;;;;;;;;5070508;28;20457;-73
2022/10/18 09:30:43;;;;;;;18.77;9.70;;;;;;;;;;5072289;28;20550;-74
2022/10/18 09:33:30;;;;;;;15.70;8.77;;;;;;;;;;5075316;28;20456;-72
2022/10/18 09:36:05;;;;;;;23.23;8.40;;;;;;;;;;5075862;28;20468;-73
2022/10/18 09:38:40;;;;;;;18.90;9.30;;;;;;;;;;5076094;28;20448;-70
2022/10/18 09:41:17;;;;;;;17.77;9.50;;;;;;;;;;5077256;28;20452;-71
2022/10/18 09:43:52;;;;;;;20.50;8.43;;;;;;;;;;5074456;28;20456;-74
2022/10/18 09:46:32;;;;;;;17.80;7.80;;;;;;;;;;5075851;28;20482;-74
2022/10/18 09:49:02;;;;;;;80.47;41.77;;;;;;;;;;5061176;28;20452;-73
2022/10/18 09:51:31;;;;;;;15.70;8.80;;;;;;;;;;5069001;28;20486;-74
2022/10/18 09:54:05;;;;;;;17.00;7.50;;;;;;;;;;5073338;28;20453;-73
2022/10/18 09:56:42;;;;;;;15.23;7.83;;;;;;;;;;5075161;28;20604;-74
2022/10/18 09:59:19;;;;;;;13.63;8.07;;;;;;;;;;5070184;28;20471;-74
2022/10/18 10:01:48;;;;;;;17.73;7.87;;;;;;;;;;5076201;28;20670;-74
2022/10/18 10:04:23;;;;;;;12.63;7.50;;;;;;;;;;5073074;28;20448;-74
2022/10/18 10:06:51;;;;;;;16.50;8.10;;;;;;;;;;5073479;28;20484;-72
2022/10/18 10:09:31;;;;;;;15.80;7.00;;;;;;;;;;5076644;28;20479;-74
2022/10/18 10:12:06;;;;;;;15.90;6.80;;;;;;;;;;5075587;28;20995;-73
2022/10/18 10:14:43;;;;;;;16.63;7.10;;;;;;;;;;5075784;28;20918;-74
2022/10/18 10:17:26;;;;;;;13.47;7.90;;;;;;;;;;5074802;28;20453;-74
2022/10/18 10:20:02;;;;;;;21.97;10.60;;;;;;;;;;5075577;28;20448;-73
2022/10/18 10:22:42;;;;;;;12.30;7.60;;;;;;;;;;5074162;28;20501;-74
2022/10/18 10:25:36;;;;;;;13.43;6.93;;;;;;;;;;5074838;28;20511;-75
2022/10/18 10:28:09;;;;;;;11.33;6.03;;;;;;;;;;5055465;28;20485;-75
2022/10/18 10:30:40;;;;;;;10.73;5.57;;;;;;;;;;5072505;28;20453;-74
2022/10/18 10:33:30;;;;;;;17.27;6.70;;;;;;;;;;5069814;28;20491;-75
2022/10/18 10:35:59;;;;;;;12.97;4.70;;;;;;;;;;5056212;28;20449;-75
2022/10/18 10:38:30;;;;;;;12.00;5.53;;;;;;;;;;5058624;28;20550;-75
2022/10/18 10:40:58;;;;;;;13.83;4.67;;;;;;;;;;5073120;28;20548;-74
2022/10/18 10:43:39;;;;;;;10.50;4.80;;;;;;;;;;5075024;28;20816;-76
2022/10/18 10:46:08;;;;;;;11.07;4.67;;;;;;;;;;5070124;28;20583;-75
2022/10/18 10:48:39;;;;;;;11.67;4.20;;;;;;;;;;5074619;28;20804;-75
2022/10/18 10:51:10;;;;;;;6.40;3.80;;;;;;;;;;5071899;28;20503;-73
2022/10/18 10:53:39;;;;;;;6.20;3.50;;;;;;;;;;5073945;28;20433;-75
2022/10/18 10:56:13;;;;;;;7.40;3.60;;;;;;;;;;5073659;28;20448;-74
2022/10/18 10:58:41;;;;;;;11.50;4.30;;;;;;;;;;5072522;28;20469;-73
2022/10/18 11:01:19;;;;;;;8.30;4.60;;;;;;;;;;5069028;28;20551;-73
2022/10/18 11:03:50;;;;;;;8.50;3.93;;;;;;;;;;5068926;28;20476;-76
2022/10/18 11:06:36;;;;;;;8.23;3.00;;;;;;;;;;5075613;28;20546;-77
2022/10/18 11:09:23;;;;;;;6.43;3.20;;;;;;;;;;5074148;28;20877;-74
2022/10/18 11:12:25;;;;;;;8.80;2.73;;;;;;;;;;5075039;28;20459;-74
2022/10/18 11:21:02;;;;;;;7.33;2.73;;;;;;;;;;5030315;28;20456;-77
2022/10/18 11:23:45;;;;;;;4.87;2.20;;;;;;;;;;5072440;28;20472;-74
2022/10/18 11:26:28;;;;;;;12.30;3.10;;;;;;;;;;5074369;28;20494;-73
2022/10/18 11:29:06;;;;;;;6.40;2.30;;;;;;;;;;5070381;28;20472;-73
2022/10/18 11:31:36;;;;;;;6.10;2.00;;;;;;;;;;5075679;28;20440;-73
2022/10/18 11:34:23;;;;;;;16.17;2.23;;;;;;;;;;5076173;28;20492;-72
2022/10/18 11:37:05;;;;;;;4.23;2.10;;;;;;;;;;5071493;28;20578;-73
2022/10/18 11:39:37;;;;;;;7.20;2.03;;;;;;;;;;5074425;28;20469;-73
2022/10/18 11:42:09;;;;;;;6.30;1.27;;;;;;;;;;5075057;28;20484;-74
2022/10/18 11:44:39;;;;;;;6.10;1.70;;;;;;;;;;5072551;28;20468;-73
2022/10/18 11:47:09;;;;;;;5.77;1.53;;;;;;;;;;5068830;28;20492;-73
2022/10/18 11:49:46;;;;;;;3.30;1.17;;;;;;;;;;5071359;28;20730;-73
2022/10/18 11:52:36;;;;;;;6.67;1.73;;;;;;;;;;5070174;28;20877;-75
2022/10/18 11:55:29;;;;;;;5.97;1.20;;;;;;;;;;5071430;28;20490;-74
2022/10/18 11:58:06;;;;;;;10.43;1.73;;;;;;;;;;5052922;28;20610;-75
2022/10/18 12:00:44;;;;;;;6.90;1.53;;;;;;;;;;5059526;28;20509;-74
2022/10/18 12:03:25;;;;;;;5.43;1.53;;;;;;;;;;5092143;28;20463;-74
2022/10/18 12:05:54;;;;;;;3.87;1.30;;;;;;;;;;5079571;28;20571;-74
2022/10/18 12:08:38;;;;;;;4.73;1.70;;;;;;;;;;5063859;28;20455;-75
2022/10/18 12:11:23;;;;;;;5.30;2.33;;;;;;;;;;5064892;28;20536;-74
2022/10/18 12:13:53;;;;;;;3.70;1.53;;;;;;;;;;5052556;28;20453;-75
2022/10/18 12:16:41;;;;;;;8.03;2.27;;;;;;;;;;5052066;28;20464;-76
2022/10/18 12:19:13;;;;;;;9.03;2.03;;;;;;;;;;5065941;28;20901;-74
2022/10/18 12:21:41;;;;;;;9.90;2.27;;;;;;;;;;5072680;28;20460;-74
2022/10/18 12:24:14;;;;;;;7.63;2.00;;;;;;;;;;5074877;28;20593;-74
2022/10/18 12:26:42;;;;;;;7.90;2.73;;;;;;;;;;5074122;28;20604;-70
2022/10/18 12:29:15;;;;;;;6.63;2.07;;;;;;;;;;5071638;28;20529;-72
2022/10/18 12:31:50;;;;;;;5.20;1.60;;;;;;;;;;5069596;28;20881;-71
2022/10/18 12:34:38;;;;;;;6.17;2.73;;;;;;;;;;5072228;28;20864;-74
2022/10/18 12:37:15;;;;;;;4.27;1.60;;;;;;;;;;5074193;28;20562;-75
2022/10/18 12:39:46;;;;;;;5.00;2.03;;;;;;;;;;5074568;28;20456;-74
2022/10/18 12:42:27;;;;;;;3.80;1.60;;;;;;;;;;5073414;28;20468;-76
2022/10/18 12:45:01;;;;;;;3.80;1.27;;;;;;;;;;5072124;28;20463;-74
2022/10/18 12:47:32;;;;;;;5.63;1.60;;;;;;;;;;5071288;28;20452;-71
2022/10/18 12:50:14;;;;;;;3.53;1.60;;;;;;;;;;5071570;28;20473;-74
2022/10/18 12:52:42;;;;;;;4.53;2.10;;;;;;;;;;5069778;28;20535;-74
2022/10/18 12:55:26;;;;;;;4.53;1.80;;;;;;;;;;5072025;28;20460;-74
2022/10/18 12:58:15;;;;;;;5.60;1.53;;;;;;;;;;5070954;28;21047;-75
2022/10/18 13:00:55;;;;;;;6.40;1.97;;;;;;;;;;5067623;28;20453;-75
2022/10/18 13:03:39;;;;;;;19.57;2.30;;;;;;;;;;5072803;28;20723;-75
2022/10/18 13:06:10;;;;;;;6.53;2.00;;;;;;;;;;5070974;28;20527;-75
2022/10/18 13:08:47;;;;;;;6.27;1.60;;;;;;;;;;5074332;28;20460;-75
2022/10/18 13:11:29;;;;;;;5.33;1.80;;;;;;;;;;5074845;28;20444;-73
2022/10/18 13:14:13;;;;;;;6.87;1.93;;;;;;;;;;5070951;28;20776;-74
2022/10/18 13:16:49;;;;;;;9.83;1.80;;;;;;;;;;5046010;28;20481;-74
2022/10/18 13:19:20;;;;;;;2.40;1.00;;;;;;;;;;5074053;28;20468;-74
2022/10/18 13:21:52;;;;;;;11.27;1.40;;;;;;;;;;5076898;28;20860;-75
2022/10/18 13:24:26;;;;;;;3.30;1.47;;;;;;;;;;5076756;28;20456;-75
2022/10/18 13:27:03;;;;;;;4.03;1.33;;;;;;;;;;5063149;28;20489;-75
2022/10/18 13:29:45;;;;;;;4.23;1.43;;;;;;;;;;5075181;28;20447;-73
2022/10/18 13:32:18;;;;;;;4.00;1.30;;;;;;;;;;5073305;28;20997;-74
2022/10/18 13:34:45;;;;;;;3.57;0.97;;;;;;;;;;5075660;28;20452;-75
2022/10/18 13:37:22;;;;;;;5.67;1.73;;;;;;;;;;5080983;28;20483;-73
2022/10/18 13:39:50;;;;;;;4.97;1.37;;;;;;;;;;5070719;28;20517;-73
2022/10/18 13:42:28;;;;;;;5.40;2.10;;;;;;;;;;5076330;28;20464;-73
2022/10/18 13:45:15;;;;;;;2.70;1.07;;;;;;;;;;5074219;28;20448;-73
2022/10/18 13:47:44;;;;;;;4.53;1.67;;;;;;;;;;5076803;28;20468;-71
2022/10/18 13:50:17;;;;;;;4.73;1.10;;;;;;;;;;5069879;28;20533;-71
2022/10/18 13:53:00;;;;;;;4.67;1.60;;;;;;;;;;5074187;28;20476;-71
2022/10/18 13:55:48;;;;;;;7.43;2.20;;;;;;;;;;5060521;28;20464;-70
2022/10/18 13:58:18;;;;;;;7.87;2.10;;;;;;;;;;5071665;28;20494;-71
2022/10/18 14:00:55;;;;;;;8.70;1.63;;;;;;;;;;5074213;28;20453;-71
2022/10/18 14:03:40;;;;;;;6.50;2.53;;;;;;;;;;5074452;28;20720;-71
2022/10/18 14:06:11;;;;;;;2.50;1.00;;;;;;;;;;5072789;28;20549;-70
2022/10/18 14:08:40;;;;;;;7.13;1.07;;;;;;;;;;5073909;28;20445;-72
2022/10/18 14:11:12;;;;;;;3.83;1.40;;;;;;;;;;5072630;28;20468;-71
2022/10/18 14:13:43;;;;;;;5.50;1.77;;;;;;;;;;5072547;28;20771;-72
2022/10/18 14:16:20;;;;;;;5.07;1.63;;;;;;;;;;5073555;28;20463;-71
2022/10/18 14:18:49;;;;;;;8.53;1.50;;;;;;;;;;5092010;28;20463;-70
2022/10/18 14:21:25;;;;;;;7.93;2.17;;;;;;;;;;5070751;28;20476;-71
2022/10/18 14:23:55;;;;;;;4.43;1.67;;;;;;;;;;5074142;28;20467;-71
2022/10/18 14:26:22;;;;;;;8.60;1.90;;;;;;;;;;5075363;28;20476;-71
2022/10/18 14:29:02;;;;;;;6.80;1.53;;;;;;;;;;5073939;28;20487;-70
2022/10/18 14:31:30;;;;;;;2.10;0.80;;;;;;;;;;5072910;28;20464;-71
2022/10/18 14:33:58;;;;;;;3.90;1.43;;;;;;;;;;5066668;28;20535;-71
2022/10/18 14:36:27;;;;;;;5.50;1.27;;;;;;;;;;5068035;28;21082;-71
2022/10/18 14:38:55;;;;;;;5.10;1.50;;;;;;;;;;5071737;28;20472;-72
2022/10/18 14:41:24;;;;;;;5.93;1.47;;;;;;;;;;5073037;28;20851;-73
2022/10/18 14:44:11;;;;;;;8.67;1.43;;;;;;;;;;5073456;28;20510;-70
2022/10/18 14:46:42;;;;;;;2.20;1.10;;;;;;;;;;5067960;28;20512;-71
2022/10/18 14:49:24;;;;;;;7.97;1.43;;;;;;;;;;5072402;28;20452;-70
2022/10/18 14:51:53;;;;;;;9.40;1.80;;;;;;;;;;5068759;28;20456;-71
2022/10/18 14:54:23;;;;;;;5.53;1.30;;;;;;;;;;5065212;28;20490;-71
2022/10/18 14:56:50;;;;;;;11.47;1.93;;;;;;;;;;5071023;28;20524;-71
2022/10/18 14:59:36;;;;;;;7.13;1.90;;;;;;;;;;5070786;28;20503;-71
2022/10/18 15:02:04;;;;;;;5.03;1.60;;;;;;;;;;5067180;28;20971;-71
2022/10/18 15:04:32;;;;;;;8.43;1.73;;;;;;;;;;5068710;28;20470;-70
2022/10/18 15:07:04;;;;;;;4.13;2.00;;;;;;;;;;5066825;28;20480;-71
2022/10/18 15:09:34;;;;;;;7.60;2.00;;;;;;;;;;5067890;28;20456;-70